Coos Bay, OR (97420)

5:38 AM PDT on October 30, 2014 (GMT -0700)
APRSWXNET Coos Bay OR US | Change Station
CLOSE
Current Station
Personal Weather Station
Location: Coos Bay, OR
Elevation: 49 ft
Nearby Weather Stations

Elev 49 ft 43.31 °N, 124.17 °W | Updated 35 minutes ago

Overcast
Overcast
57 °F
Feels Like 57 °F
N
0
Wind Variable Wind from SSE
Gusts 0.0 mph

Today
High -- | Low -- °F
--% Chance of Precip.
Yesterday
High -- | Low -- °F
Precip. -- in
7:49 AM 6:10 PM
Waxing Crescent, 43% visible
Pressure 29.89 in
Visibility 8.0 miles
Clouds Overcast 2900 ft
Dew Point 56 °F
Humidity 96%
Rainfall -999.00 in
Snow Depth Not available.
UV 0 out of 12
Pollen .30 out of 12
Air Quality Not available.
Flu Activity Not available.
METAR KOTH 301215Z 00000KT 8SM OVC029 15/15 A2989 RMK AO1

More Conditions Fewer Conditions

Pressure 29.89 in
Visibility 8.0 miles
Clouds Overcast 2900 ft
Dew Point 56 °F
Humidity 96%
Rainfall -999.00 in
Snow Depth Not available.
UV 0 out of 12
Pollen .30 out of 12
Air Quality Not available.
Flu Activity Not available.
METAR KOTH 301215Z 00000KT 8SM OVC029 15/15 A2989 RMK AO1

More Conditions Fewer Conditions

10-Day Weather Forecast

Almanac

Astronomy

Oct. 30, 2014 Rise Set
Actual Time
Civil Twilight
Nautical Twilight
Astronomical Twilight
Moon
Length of Visible Light
Length of Day
Tomorrow will be .
, % of the Moon is Illuminated

Today's Extremes

State Highs State Lows

Community

WunderPhotos

Upload Photos

1,766,351 photos uploaded!

WunderBlogs® & News

Nearby

Air Quality

  Air Quality AQ Index Pollutant
Not available.

Snow Depth

Station Depth Elevation

Earthquake Activity

City Distance Mag. Time & Date
Minimum magnitude displayed is 2.5.

Coastal Water Temperatures

Place Temperature

Nearby Weather Stations